sensor_id;sensor_type;location;lat;lon;timestamp;P1;durP1;ratioP1;P2;durP2;ratioP2
3601;SDS011;1815;50.950;6.920;2023-11-19T00:02:23;1.80;;;1.00;;
3601;SDS011;1815;50.950;6.920;2023-11-19T00:04:49;1.90;;;0.90;;
3601;SDS011;1815;50.950;6.920;2023-11-19T00:07:14;1.73;;;1.00;;
3601;SDS011;1815;50.950;6.920;2023-11-19T00:09:40;5.40;;;4.60;;
3601;SDS011;1815;50.950;6.920;2023-11-19T00:12:07;7.33;;;5.80;;
3601;SDS011;1815;50.950;6.920;2023-11-19T00:14:33;14.40;;;10.37;;
3601;SDS011;1815;50.950;6.920;2023-11-19T00:16:59;6.60;;;5.33;;
3601;SDS011;1815;50.950;6.920;2023-11-19T00:19:26;7.13;;;4.17;;
3601;SDS011;1815;50.950;6.920;2023-11-19T00:21:52;5.03;;;3.20;;
3601;SDS011;1815;50.950;6.920;2023-11-19T00:24:17;5.07;;;3.73;;
3601;SDS011;1815;50.950;6.920;2023-11-19T00:26:43;5.20;;;2.97;;
3601;SDS011;1815;50.950;6.920;2023-11-19T00:29:09;3.47;;;2.23;;
3601;SDS011;1815;50.950;6.920;2023-11-19T00:31:35;3.50;;;1.73;;
3601;SDS011;1815;50.950;6.920;2023-11-19T00:34:02;2.40;;;1.10;;
3601;SDS011;1815;50.950;6.920;2023-11-19T00:36:28;3.10;;;0.90;;
3601;SDS011;1815;50.950;6.920;2023-11-19T00:38:53;1.97;;;0.87;;
3601;SDS011;1815;50.950;6.920;2023-11-19T00:41:20;1.83;;;0.60;;
3601;SDS011;1815;50.950;6.920;2023-11-19T00:43:46;1.70;;;0.83;;
3601;SDS011;1815;50.950;6.920;2023-11-19T00:46:12;1.97;;;0.67;;
3601;SDS011;1815;50.950;6.920;2023-11-19T00:48:39;1.33;;;0.60;;
3601;SDS011;1815;50.950;6.920;2023-11-19T00:51:05;1.43;;;0.57;;
3601;SDS011;1815;50.950;6.920;2023-11-19T00:53:31;1.50;;;0.60;;
3601;SDS011;1815;50.950;6.920;2023-11-19T00:56:00;1.20;;;0.57;;
3601;SDS011;1815;50.950;6.920;2023-11-19T00:58:26;1.40;;;0.70;;
3601;SDS011;1815;50.950;6.920;2023-11-19T01:00:54;1.20;;;0.60;;
3601;SDS011;1815;50.950;6.920;2023-11-19T01:03:22;1.33;;;0.67;;
3601;SDS011;1815;50.950;6.920;2023-11-19T01:05:48;2.30;;;0.60;;
3601;SDS011;1815;50.950;6.920;2023-11-19T01:08:13;1.67;;;0.73;;
3601;SDS011;1815;50.950;6.920;2023-11-19T01:10:41;1.77;;;1.07;;
3601;SDS011;1815;50.950;6.920;2023-11-19T01:13:06;1.50;;;0.77;;
3601;SDS011;1815;50.950;6.920;2023-11-19T01:15:32;1.30;;;0.50;;
3601;SDS011;1815;50.950;6.920;2023-11-19T01:17:58;1.97;;;0.80;;
3601;SDS011;1815;50.950;6.920;2023-11-19T01:20:24;2.17;;;0.70;;
3601;SDS011;1815;50.950;6.920;2023-11-19T01:22:50;1.60;;;1.07;;
3601;SDS011;1815;50.950;6.920;2023-11-19T01:25:16;3.30;;;0.83;;
3601;SDS011;1815;50.950;6.920;2023-11-19T01:27:43;1.80;;;0.80;;
3601;SDS011;1815;50.950;6.920;2023-11-19T01:30:09;1.47;;;0.60;;
3601;SDS011;1815;50.950;6.920;2023-11-19T01:32:38;1.50;;;0.70;;
3601;SDS011;1815;50.950;6.920;2023-11-19T01:35:05;1.40;;;0.70;;
3601;SDS011;1815;50.950;6.920;2023-11-19T01:37:31;1.33;;;0.77;;
3601;SDS011;1815;50.950;6.920;2023-11-19T01:39:57;1.67;;;0.70;;
3601;SDS011;1815;50.950;6.920;2023-11-19T01:42:23;4.60;;;0.70;;
3601;SDS011;1815;50.950;6.920;2023-11-19T01:44:57;1.40;;;0.50;;
3601;SDS011;1815;50.950;6.920;2023-11-19T01:47:25;1.30;;;0.60;;
3601;SDS011;1815;50.950;6.920;2023-11-19T01:49:51;1.90;;;0.63;;
3601;SDS011;1815;50.950;6.920;2023-11-19T01:52:18;1.50;;;0.67;;
3601;SDS011;1815;50.950;6.920;2023-11-19T01:54:45;1.20;;;0.50;;
3601;SDS011;1815;50.950;6.920;2023-11-19T01:57:12;2.77;;;0.80;;
3601;SDS011;1815;50.950;6.920;2023-11-19T01:59:39;4.40;;;0.60;;
3601;SDS011;1815;50.950;6.920;2023-11-19T02:02:05;2.03;;;0.60;;
3601;SDS011;1815;50.950;6.920;2023-11-19T02:04:31;2.67;;;0.60;;
3601;SDS011;1815;50.950;6.920;2023-11-19T02:06:59;1.30;;;0.60;;
3601;SDS011;1815;50.950;6.920;2023-11-19T02:09:25;1.50;;;0.70;;
3601;SDS011;1815;50.950;6.920;2023-11-19T02:11:52;2.80;;;0.90;;
3601;SDS011;1815;50.950;6.920;2023-11-19T02:14:21;2.87;;;1.03;;
3601;SDS011;1815;50.950;6.920;2023-11-19T02:16:51;1.80;;;0.63;;
3601;SDS011;1815;50.950;6.920;2023-11-19T02:19:20;3.47;;;0.77;;
3601;SDS011;1815;50.950;6.920;2023-11-19T02:21:46;2.33;;;0.70;;
3601;SDS011;1815;50.950;6.920;2023-11-19T02:24:13;2.00;;;0.63;;
3601;SDS011;1815;50.950;6.920;2023-11-19T02:27:16;2.20;;;0.80;;
3601;SDS011;1815;50.950;6.920;2023-11-19T02:29:38;3.20;;;0.80;;
3601;SDS011;1815;50.950;6.920;2023-11-19T02:32:04;2.20;;;0.70;;
3601;SDS011;1815;50.950;6.920;2023-11-19T02:34:31;2.03;;;0.67;;
3601;SDS011;1815;50.950;6.920;2023-11-19T02:36:56;2.43;;;1.17;;
3601;SDS011;1815;50.950;6.920;2023-11-19T02:39:22;3.30;;;0.77;;
3601;SDS011;1815;50.950;6.920;2023-11-19T02:41:48;1.50;;;0.73;;
3601;SDS011;1815;50.950;6.920;2023-11-19T02:44:17;2.47;;;0.80;;
3601;SDS011;1815;50.950;6.920;2023-11-19T02:46:42;6.90;;;1.00;;
3601;SDS011;1815;50.950;6.920;2023-11-19T02:49:08;4.17;;;0.90;;
3601;SDS011;1815;50.950;6.920;2023-11-19T02:51:34;4.67;;;0.87;;
3601;SDS011;1815;50.950;6.920;2023-11-19T02:54:00;3.40;;;0.70;;
3601;SDS011;1815;50.950;6.920;2023-11-19T02:56:28;3.73;;;0.77;;
3601;SDS011;1815;50.950;6.920;2023-11-19T02:59:00;5.30;;;0.70;;
3601;SDS011;1815;50.950;6.920;2023-11-19T03:01:33;3.83;;;0.90;;
3601;SDS011;1815;50.950;6.920;2023-11-19T03:04:01;3.70;;;0.80;;
3601;SDS011;1815;50.950;6.920;2023-11-19T03:06:27;1.83;;;1.00;;
3601;SDS011;1815;50.950;6.920;2023-11-19T03:08:54;2.13;;;1.17;;
3601;SDS011;1815;50.950;6.920;2023-11-19T03:11:20;2.70;;;0.90;;
3601;SDS011;1815;50.950;6.920;2023-11-19T03:13:46;2.23;;;0.73;;
3601;SDS011;1815;50.950;6.920;2023-11-19T03:16:12;2.60;;;0.90;;
3601;SDS011;1815;50.950;6.920;2023-11-19T03:18:39;6.87;;;1.17;;
3601;SDS011;1815;50.950;6.920;2023-11-19T03:21:07;6.30;;;1.10;;
3601;SDS011;1815;50.950;6.920;2023-11-19T03:23:33;3.77;;;1.00;;
3601;SDS011;1815;50.950;6.920;2023-11-19T03:26:00;7.10;;;1.70;;
3601;SDS011;1815;50.950;6.920;2023-11-19T03:28:29;5.17;;;1.53;;
3601;SDS011;1815;50.950;6.920;2023-11-19T03:30:56;2.73;;;0.70;;
3601;SDS011;1815;50.950;6.920;2023-11-19T03:33:21;2.27;;;0.90;;
3601;SDS011;1815;50.950;6.920;2023-11-19T03:35:47;4.93;;;1.13;;
3601;SDS011;1815;50.950;6.920;2023-11-19T03:38:13;7.37;;;1.33;;
3601;SDS011;1815;50.950;6.920;2023-11-19T03:40:39;8.90;;;1.50;;
3601;SDS011;1815;50.950;6.920;2023-11-19T03:43:05;3.07;;;0.80;;
3601;SDS011;1815;50.950;6.920;2023-11-19T03:45:31;5.67;;;1.40;;
3601;SDS011;1815;50.950;6.920;2023-11-19T03:47:57;6.37;;;1.30;;
3601;SDS011;1815;50.950;6.920;2023-11-19T03:50:23;4.57;;;1.10;;
3601;SDS011;1815;50.950;6.920;2023-11-19T03:52:49;5.10;;;2.00;;
3601;SDS011;1815;50.950;6.920;2023-11-19T03:55:14;2.70;;;0.90;;
3601;SDS011;1815;50.950;6.920;2023-11-19T03:57:40;5.70;;;1.10;;
3601;SDS011;1815;50.950;6.920;2023-11-19T04:00:06;4.17;;;1.37;;
3601;SDS011;1815;50.950;6.920;2023-11-19T04:02:39;5.40;;;1.43;;
3601;SDS011;1815;50.950;6.920;2023-11-19T04:05:06;4.27;;;1.00;;
3601;SDS011;1815;50.950;6.920;2023-11-19T04:07:32;8.00;;;1.10;;
3601;SDS011;1815;50.950;6.920;2023-11-19T04:09:57;4.47;;;1.30;;
3601;SDS011;1815;50.950;6.920;2023-11-19T04:12:24;5.67;;;1.17;;
3601;SDS011;1815;50.950;6.920;2023-11-19T04:14:49;2.90;;;0.90;;
3601;SDS011;1815;50.950;6.920;2023-11-19T04:17:17;5.10;;;1.20;;
3601;SDS011;1815;50.950;6.920;2023-11-19T04:19:42;5.13;;;1.10;;
3601;SDS011;1815;50.950;6.920;2023-11-19T04:22:08;5.20;;;1.00;;
3601;SDS011;1815;50.950;6.920;2023-11-19T04:24:34;5.57;;;1.10;;
3601;SDS011;1815;50.950;6.920;2023-11-19T04:27:00;6.00;;;1.40;;
3601;SDS011;1815;50.950;6.920;2023-11-19T04:29:26;3.80;;;1.37;;
3601;SDS011;1815;50.950;6.920;2023-11-19T04:31:52;4.83;;;1.20;;
3601;SDS011;1815;50.950;6.920;2023-11-19T04:34:18;2.80;;;0.90;;
3601;SDS011;1815;50.950;6.920;2023-11-19T04:36:44;7.00;;;1.10;;
3601;SDS011;1815;50.950;6.920;2023-11-19T04:39:09;6.07;;;1.60;;
3601;SDS011;1815;50.950;6.920;2023-11-19T04:41:48;8.33;;;1.33;;
3601;SDS011;1815;50.950;6.920;2023-11-19T04:44:15;6.03;;;1.50;;
3601;SDS011;1815;50.950;6.920;2023-11-19T04:46:42;6.67;;;1.80;;
3601;SDS011;1815;50.950;6.920;2023-11-19T04:49:11;5.67;;;1.80;;
3601;SDS011;1815;50.950;6.920;2023-11-19T04:51:38;6.53;;;1.30;;
3601;SDS011;1815;50.950;6.920;2023-11-19T04:54:08;10.70;;;1.50;;
3601;SDS011;1815;50.950;6.920;2023-11-19T04:56:34;6.90;;;1.40;;
3601;SDS011;1815;50.950;6.920;2023-11-19T04:59:04;8.00;;;2.00;;
3601;SDS011;1815;50.950;6.920;2023-11-19T05:01:34;5.87;;;1.87;;
3601;SDS011;1815;50.950;6.920;2023-11-19T05:04:00;6.10;;;1.47;;
3601;SDS011;1815;50.950;6.920;2023-11-19T05:06:30;10.93;;;1.57;;
3601;SDS011;1815;50.950;6.920;2023-11-19T05:08:58;6.37;;;1.70;;
3601;SDS011;1815;50.950;6.920;2023-11-19T05:11:35;5.23;;;1.50;;
3601;SDS011;1815;50.950;6.920;2023-11-19T05:14:04;6.73;;;1.43;;
3601;SDS011;1815;50.950;6.920;2023-11-19T05:16:30;7.40;;;1.47;;
3601;SDS011;1815;50.950;6.920;2023-11-19T05:18:56;5.30;;;1.57;;
3601;SDS011;1815;50.950;6.920;2023-11-19T05:21:22;6.40;;;1.77;;
3601;SDS011;1815;50.950;6.920;2023-11-19T05:23:49;8.10;;;1.40;;
3601;SDS011;1815;50.950;6.920;2023-11-19T05:26:21;11.77;;;1.70;;
3601;SDS011;1815;50.950;6.920;2023-11-19T05:28:48;5.60;;;2.33;;
3601;SDS011;1815;50.950;6.920;2023-11-19T05:31:15;7.60;;;1.30;;
3601;SDS011;1815;50.950;6.920;2023-11-19T05:33:42;5.83;;;1.50;;
3601;SDS011;1815;50.950;6.920;2023-11-19T05:36:08;5.10;;;1.50;;
3601;SDS011;1815;50.950;6.920;2023-11-19T05:38:35;5.97;;;1.40;;
3601;SDS011;1815;50.950;6.920;2023-11-19T05:41:02;7.70;;;1.77;;
3601;SDS011;1815;50.950;6.920;2023-11-19T05:43:28;9.87;;;1.97;;
3601;SDS011;1815;50.950;6.920;2023-11-19T05:45:53;10.73;;;2.70;;
3601;SDS011;1815;50.950;6.920;2023-11-19T05:48:19;9.83;;;1.50;;
3601;SDS011;1815;50.950;6.920;2023-11-19T05:50:45;10.07;;;1.97;;
3601;SDS011;1815;50.950;6.920;2023-11-19T05:53:11;7.33;;;1.40;;
3601;SDS011;1815;50.950;6.920;2023-11-19T05:55:39;10.73;;;2.90;;
3601;SDS011;1815;50.950;6.920;2023-11-19T05:58:14;13.13;;;2.07;;
3601;SDS011;1815;50.950;6.920;2023-11-19T06:00:41;12.23;;;2.20;;
3601;SDS011;1815;50.950;6.920;2023-11-19T06:03:07;10.30;;;2.30;;
3601;SDS011;1815;50.950;6.920;2023-11-19T06:05:32;5.53;;;1.73;;
3601;SDS011;1815;50.950;6.920;2023-11-19T06:07:58;8.90;;;2.30;;
3601;SDS011;1815;50.950;6.920;2023-11-19T06:10:24;8.13;;;1.60;;
3601;SDS011;1815;50.950;6.920;2023-11-19T06:12:59;13.00;;;1.80;;
3601;SDS011;1815;50.950;6.920;2023-11-19T06:15:25;7.67;;;2.07;;
3601;SDS011;1815;50.950;6.920;2023-11-19T06:17:52;11.77;;;2.07;;
3601;SDS011;1815;50.950;6.920;2023-11-19T06:20:18;19.30;;;2.40;;
3601;SDS011;1815;50.950;6.920;2023-11-19T06:22:45;9.00;;;2.80;;
3601;SDS011;1815;50.950;6.920;2023-11-19T06:25:11;8.30;;;2.57;;
3601;SDS011;1815;50.950;6.920;2023-11-19T06:27:40;12.17;;;2.67;;
3601;SDS011;1815;50.950;6.920;2023-11-19T06:30:06;8.60;;;1.77;;
3601;SDS011;1815;50.950;6.920;2023-11-19T06:32:33;11.63;;;2.33;;
3601;SDS011;1815;50.950;6.920;2023-11-19T06:34:58;10.97;;;2.60;;
3601;SDS011;1815;50.950;6.920;2023-11-19T06:37:24;10.43;;;2.17;;
3601;SDS011;1815;50.950;6.920;2023-11-19T06:39:50;8.70;;;1.83;;
3601;SDS011;1815;50.950;6.920;2023-11-19T06:42:15;11.00;;;2.80;;
3601;SDS011;1815;50.950;6.920;2023-11-19T06:44:42;6.97;;;1.87;;
3601;SDS011;1815;50.950;6.920;2023-11-19T06:47:08;11.53;;;3.53;;
3601;SDS011;1815;50.950;6.920;2023-11-19T06:49:33;9.20;;;1.97;;
3601;SDS011;1815;50.950;6.920;2023-11-19T06:51:59;10.67;;;3.20;;
3601;SDS011;1815;50.950;6.920;2023-11-19T06:54:24;12.87;;;2.37;;
3601;SDS011;1815;50.950;6.920;2023-11-19T06:56:50;7.77;;;2.30;;
3601;SDS011;1815;50.950;6.920;2023-11-19T06:59:16;10.17;;;2.00;;
3601;SDS011;1815;50.950;6.920;2023-11-19T07:01:42;9.33;;;2.40;;
3601;SDS011;1815;50.950;6.920;2023-11-19T07:04:11;8.83;;;1.67;;
3601;SDS011;1815;50.950;6.920;2023-11-19T07:06:37;8.83;;;2.10;;
3601;SDS011;1815;50.950;6.920;2023-11-19T07:09:06;10.60;;;2.10;;
3601;SDS011;1815;50.950;6.920;2023-11-19T07:11:38;8.47;;;1.80;;
3601;SDS011;1815;50.950;6.920;2023-11-19T07:14:05;10.50;;;2.17;;
3601;SDS011;1815;50.950;6.920;2023-11-19T07:16:32;10.20;;;1.73;;
3601;SDS011;1815;50.950;6.920;2023-11-19T07:19:02;9.33;;;2.33;;
3601;SDS011;1815;50.950;6.920;2023-11-19T07:21:29;11.87;;;2.60;;
3601;SDS011;1815;50.950;6.920;2023-11-19T07:23:54;11.47;;;2.10;;
3601;SDS011;1815;50.950;6.920;2023-11-19T07:26:21;12.60;;;2.40;;
3601;SDS011;1815;50.950;6.920;2023-11-19T07:28:47;12.37;;;2.47;;
3601;SDS011;1815;50.950;6.920;2023-11-19T07:31:14;15.97;;;3.10;;
3601;SDS011;1815;50.950;6.920;2023-11-19T07:33:39;13.33;;;2.23;;
3601;SDS011;1815;50.950;6.920;2023-11-19T07:36:08;12.93;;;2.20;;
3601;SDS011;1815;50.950;6.920;2023-11-19T07:38:34;10.60;;;2.20;;
3601;SDS011;1815;50.950;6.920;2023-11-19T07:41:00;4.97;;;1.40;;
3601;SDS011;1815;50.950;6.920;2023-11-19T07:43:26;10.70;;;2.77;;
3601;SDS011;1815;50.950;6.920;2023-11-19T07:45:51;13.70;;;3.13;;
3601;SDS011;1815;50.950;6.920;2023-11-19T07:48:17;12.07;;;2.80;;
3601;SDS011;1815;50.950;6.920;2023-11-19T07:50:48;9.13;;;2.13;;
3601;SDS011;1815;50.950;6.920;2023-11-19T07:53:15;10.50;;;2.00;;
3601;SDS011;1815;50.950;6.920;2023-11-19T07:55:41;8.17;;;1.73;;
3601;SDS011;1815;50.950;6.920;2023-11-19T07:58:07;13.60;;;2.30;;
3601;SDS011;1815;50.950;6.920;2023-11-19T08:00:33;10.87;;;2.40;;
3601;SDS011;1815;50.950;6.920;2023-11-19T08:02:58;11.73;;;2.77;;
3601;SDS011;1815;50.950;6.920;2023-11-19T08:05:24;12.00;;;1.70;;
3601;SDS011;1815;50.950;6.920;2023-11-19T08:07:50;7.47;;;2.20;;
3601;SDS011;1815;50.950;6.920;2023-11-19T08:10:18;10.90;;;2.20;;
3601;SDS011;1815;50.950;6.920;2023-11-19T08:12:44;9.40;;;2.20;;
3601;SDS011;1815;50.950;6.920;2023-11-19T08:15:10;10.87;;;2.17;;
3601;SDS011;1815;50.950;6.920;2023-11-19T08:17:36;10.80;;;1.63;;
3601;SDS011;1815;50.950;6.920;2023-11-19T08:20:02;8.97;;;2.27;;
3601;SDS011;1815;50.950;6.920;2023-11-19T08:22:29;8.57;;;2.43;;
3601;SDS011;1815;50.950;6.920;2023-11-19T08:24:56;10.10;;;3.00;;
3601;SDS011;1815;50.950;6.920;2023-11-19T08:27:22;9.27;;;3.27;;
3601;SDS011;1815;50.950;6.920;2023-11-19T08:29:54;14.13;;;3.60;;
3601;SDS011;1815;50.950;6.920;2023-11-19T08:32:25;11.40;;;3.60;;
3601;SDS011;1815;50.950;6.920;2023-11-19T08:34:51;9.43;;;2.00;;
3601;SDS011;1815;50.950;6.920;2023-11-19T08:37:17;9.10;;;2.10;;
3601;SDS011;1815;50.950;6.920;2023-11-19T08:39:47;8.50;;;1.50;;
3601;SDS011;1815;50.950;6.920;2023-11-19T08:42:13;15.37;;;3.57;;
3601;SDS011;1815;50.950;6.920;2023-11-19T08:44:43;10.83;;;2.57;;
3601;SDS011;1815;50.950;6.920;2023-11-19T08:47:12;13.70;;;4.00;;
3601;SDS011;1815;50.950;6.920;2023-11-19T08:49:41;15.20;;;5.10;;
3601;SDS011;1815;50.950;6.920;2023-11-19T08:52:07;11.40;;;3.60;;
3601;SDS011;1815;50.950;6.920;2023-11-19T08:54:35;13.07;;;2.37;;
3601;SDS011;1815;50.950;6.920;2023-11-19T08:57:04;14.40;;;2.93;;
3601;SDS011;1815;50.950;6.920;2023-11-19T08:59:32;14.40;;;2.73;;
3601;SDS011;1815;50.950;6.920;2023-11-19T09:01:58;9.03;;;2.13;;
3601;SDS011;1815;50.950;6.920;2023-11-19T09:04:23;8.17;;;2.20;;
3601;SDS011;1815;50.950;6.920;2023-11-19T09:06:49;13.20;;;3.00;;
3601;SDS011;1815;50.950;6.920;2023-11-19T09:09:15;16.23;;;3.57;;
3601;SDS011;1815;50.950;6.920;2023-11-19T09:11:41;13.63;;;3.63;;
3601;SDS011;1815;50.950;6.920;2023-11-19T09:14:07;12.27;;;2.63;;
3601;SDS011;1815;50.950;6.920;2023-11-19T09:16:33;9.00;;;2.87;;
3601;SDS011;1815;50.950;6.920;2023-11-19T09:19:01;13.23;;;2.80;;
3601;SDS011;1815;50.950;6.920;2023-11-19T09:21:27;11.00;;;3.03;;
3601;SDS011;1815;50.950;6.920;2023-11-19T09:23:57;10.83;;;2.37;;
3601;SDS011;1815;50.950;6.920;2023-11-19T09:26:23;7.00;;;2.10;;
3601;SDS011;1815;50.950;6.920;2023-11-19T09:28:49;9.07;;;2.20;;
3601;SDS011;1815;50.950;6.920;2023-11-19T09:31:15;18.20;;;2.70;;
3601;SDS011;1815;50.950;6.920;2023-11-19T09:33:41;11.30;;;3.00;;
3601;SDS011;1815;50.950;6.920;2023-11-19T09:36:07;12.83;;;3.17;;
3601;SDS011;1815;50.950;6.920;2023-11-19T09:38:33;14.43;;;2.70;;
3601;SDS011;1815;50.950;6.920;2023-11-19T09:41:06;12.90;;;2.27;;
3601;SDS011;1815;50.950;6.920;2023-11-19T09:43:37;11.80;;;3.20;;
3601;SDS011;1815;50.950;6.920;2023-11-19T09:46:07;17.67;;;3.37;;
3601;SDS011;1815;50.950;6.920;2023-11-19T09:48:38;9.73;;;2.80;;
3601;SDS011;1815;50.950;6.920;2023-11-19T09:51:07;12.60;;;4.07;;
3601;SDS011;1815;50.950;6.920;2023-11-19T09:53:37;8.47;;;2.60;;
3601;SDS011;1815;50.950;6.920;2023-11-19T09:56:04;8.93;;;2.97;;
3601;SDS011;1815;50.950;6.920;2023-11-19T09:58:33;11.60;;;2.80;;
3601;SDS011;1815;50.950;6.920;2023-11-19T10:00:59;14.40;;;3.10;;
3601;SDS011;1815;50.950;6.920;2023-11-19T10:03:26;11.23;;;2.70;;
3601;SDS011;1815;50.950;6.920;2023-11-19T10:05:55;13.23;;;2.33;;
3601;SDS011;1815;50.950;6.920;2023-11-19T10:08:24;10.27;;;2.80;;
3601;SDS011;1815;50.950;6.920;2023-11-19T10:10:50;6.50;;;2.10;;
3601;SDS011;1815;50.950;6.920;2023-11-19T10:13:17;12.93;;;2.87;;
3601;SDS011;1815;50.950;6.920;2023-11-19T10:15:43;7.57;;;2.07;;
3601;SDS011;1815;50.950;6.920;2023-11-19T10:18:09;15.47;;;3.50;;
3601;SDS011;1815;50.950;6.920;2023-11-19T10:20:40;10.07;;;2.57;;
3601;SDS011;1815;50.950;6.920;2023-11-19T10:23:06;12.00;;;2.70;;
3601;SDS011;1815;50.950;6.920;2023-11-19T10:25:33;11.40;;;2.63;;
3601;SDS011;1815;50.950;6.920;2023-11-19T10:27:59;12.30;;;2.50;;
3601;SDS011;1815;50.950;6.920;2023-11-19T10:30:26;12.47;;;2.43;;
3601;SDS011;1815;50.950;6.920;2023-11-19T10:35:32;11.73;;;2.23;;
3601;SDS011;1815;50.950;6.920;2023-11-19T10:38:14;12.03;;;3.03;;
3601;SDS011;1815;50.950;6.920;2023-11-19T10:40:41;13.67;;;3.00;;
3601;SDS011;1815;50.950;6.920;2023-11-19T10:43:09;11.37;;;2.60;;
3601;SDS011;1815;50.950;6.920;2023-11-19T10:45:36;14.17;;;3.30;;
3601;SDS011;1815;50.950;6.920;2023-11-19T10:48:03;11.93;;;3.10;;
3601;SDS011;1815;50.950;6.920;2023-11-19T10:50:32;6.90;;;3.43;;
3601;SDS011;1815;50.950;6.920;2023-11-19T10:52:59;11.47;;;3.00;;
3601;SDS011;1815;50.950;6.920;2023-11-19T10:55:28;11.33;;;4.50;;
3601;SDS011;1815;50.950;6.920;2023-11-19T10:57:58;14.90;;;3.27;;
3601;SDS011;1815;50.950;6.920;2023-11-19T11:00:38;9.87;;;2.60;;
3601;SDS011;1815;50.950;6.920;2023-11-19T11:03:11;9.30;;;2.83;;
3601;SDS011;1815;50.950;6.920;2023-11-19T11:05:48;15.27;;;2.70;;
3601;SDS011;1815;50.950;6.920;2023-11-19T11:08:16;11.43;;;4.00;;
3601;SDS011;1815;50.950;6.920;2023-11-19T11:10:43;8.60;;;2.43;;
3601;SDS011;1815;50.950;6.920;2023-11-19T11:13:12;9.73;;;3.30;;
3601;SDS011;1815;50.950;6.920;2023-11-19T11:15:39;11.70;;;3.30;;
3601;SDS011;1815;50.950;6.920;2023-11-19T11:18:08;7.67;;;2.60;;
3601;SDS011;1815;50.950;6.920;2023-11-19T11:20:34;10.63;;;3.27;;
3601;SDS011;1815;50.950;6.920;2023-11-19T11:28:27;12.80;;;3.27;;
3601;SDS011;1815;50.950;6.920;2023-11-19T11:36:57;8.33;;;1.93;;
3601;SDS011;1815;50.950;6.920;2023-11-19T11:39:39;8.30;;;2.00;;
3601;SDS011;1815;50.950;6.920;2023-11-19T11:50:07;7.63;;;2.23;;
3601;SDS011;1815;50.950;6.920;2023-11-19T11:55:35;9.40;;;1.77;;
3601;SDS011;1815;50.950;6.920;2023-11-19T11:58:29;8.60;;;2.10;;
3601;SDS011;1815;50.950;6.920;2023-11-19T12:01:01;4.80;;;1.80;;
3601;SDS011;1815;50.950;6.920;2023-11-19T12:03:28;7.20;;;2.67;;
3601;SDS011;1815;50.950;6.920;2023-11-19T12:05:55;7.10;;;1.87;;
3601;SDS011;1815;50.950;6.920;2023-11-19T12:08:24;8.50;;;2.27;;
3601;SDS011;1815;50.950;6.920;2023-11-19T12:10:52;9.90;;;2.33;;
3601;SDS011;1815;50.950;6.920;2023-11-19T12:13:44;13.60;;;2.47;;
3601;SDS011;1815;50.950;6.920;2023-11-19T12:16:13;7.07;;;2.30;;
3601;SDS011;1815;50.950;6.920;2023-11-19T12:18:39;8.77;;;2.63;;
3601;SDS011;1815;50.950;6.920;2023-11-19T12:21:06;7.00;;;2.03;;
3601;SDS011;1815;50.950;6.920;2023-11-19T12:23:34;9.60;;;3.43;;
3601;SDS011;1815;50.950;6.920;2023-11-19T12:26:00;12.23;;;1.73;;
3601;SDS011;1815;50.950;6.920;2023-11-19T12:28:26;7.57;;;2.10;;
3601;SDS011;1815;50.950;6.920;2023-11-19T12:31:06;8.20;;;2.77;;
3601;SDS011;1815;50.950;6.920;2023-11-19T12:33:36;8.90;;;2.47;;
3601;SDS011;1815;50.950;6.920;2023-11-19T12:36:03;7.13;;;1.40;;
3601;SDS011;1815;50.950;6.920;2023-11-19T12:38:30;7.50;;;1.83;;
3601;SDS011;1815;50.950;6.920;2023-11-19T12:41:06;7.67;;;1.93;;
3601;SDS011;1815;50.950;6.920;2023-11-19T12:43:32;6.80;;;1.67;;
3601;SDS011;1815;50.950;6.920;2023-11-19T12:48:46;10.83;;;2.10;;
3601;SDS011;1815;50.950;6.920;2023-11-19T12:51:15;6.93;;;1.40;;
3601;SDS011;1815;50.950;6.920;2023-11-19T12:53:48;10.10;;;1.87;;
3601;SDS011;1815;50.950;6.920;2023-11-19T12:56:15;6.30;;;1.37;;
3601;SDS011;1815;50.950;6.920;2023-11-19T12:58:43;8.30;;;1.87;;
3601;SDS011;1815;50.950;6.920;2023-11-19T13:01:09;9.07;;;1.70;;
3601;SDS011;1815;50.950;6.920;2023-11-19T13:03:40;10.73;;;3.43;;
3601;SDS011;1815;50.950;6.920;2023-11-19T13:06:06;5.33;;;1.23;;
3601;SDS011;1815;50.950;6.920;2023-11-19T13:08:39;7.10;;;1.60;;
3601;SDS011;1815;50.950;6.920;2023-11-19T13:11:10;10.53;;;1.80;;
3601;SDS011;1815;50.950;6.920;2023-11-19T13:16:22;6.80;;;1.40;;
3601;SDS011;1815;50.950;6.920;2023-11-19T13:18:48;7.80;;;3.30;;
3601;SDS011;1815;50.950;6.920;2023-11-19T13:21:14;8.70;;;3.10;;
3601;SDS011;1815;50.950;6.920;2023-11-19T13:23:40;9.07;;;2.93;;
3601;SDS011;1815;50.950;6.920;2023-11-19T13:26:05;7.00;;;3.03;;
3601;SDS011;1815;50.950;6.920;2023-11-19T13:28:31;9.23;;;2.37;;
3601;SDS011;1815;50.950;6.920;2023-11-19T13:30:57;6.07;;;2.47;;
3601;SDS011;1815;50.950;6.920;2023-11-19T13:33:23;8.87;;;2.43;;
3601;SDS011;1815;50.950;6.920;2023-11-19T13:35:49;14.33;;;4.20;;
3601;SDS011;1815;50.950;6.920;2023-11-19T13:38:14;11.33;;;3.60;;
3601;SDS011;1815;50.950;6.920;2023-11-19T13:40:43;11.00;;;3.87;;
3601;SDS011;1815;50.950;6.920;2023-11-19T13:43:09;8.53;;;2.20;;
3601;SDS011;1815;50.950;6.920;2023-11-19T13:45:37;7.47;;;1.97;;
3601;SDS011;1815;50.950;6.920;2023-11-19T13:48:05;8.33;;;2.43;;
3601;SDS011;1815;50.950;6.920;2023-11-19T13:50:31;9.43;;;1.93;;
3601;SDS011;1815;50.950;6.920;2023-11-19T13:52:57;9.30;;;1.97;;
3601;SDS011;1815;50.950;6.920;2023-11-19T13:55:23;10.20;;;2.07;;
3601;SDS011;1815;50.950;6.920;2023-11-19T13:57:48;14.53;;;3.03;;
3601;SDS011;1815;50.950;6.920;2023-11-19T14:00:14;7.77;;;2.20;;
3601;SDS011;1815;50.950;6.920;2023-11-19T14:02:44;12.40;;;2.60;;
3601;SDS011;1815;50.950;6.920;2023-11-19T14:05:12;9.93;;;2.70;;
3601;SDS011;1815;50.950;6.920;2023-11-19T14:07:38;12.33;;;3.30;;
3601;SDS011;1815;50.950;6.920;2023-11-19T14:10:04;7.50;;;1.50;;
3601;SDS011;1815;50.950;6.920;2023-11-19T14:12:31;10.80;;;2.43;;
3601;SDS011;1815;50.950;6.920;2023-11-19T14:14:58;8.57;;;2.30;;
3601;SDS011;1815;50.950;6.920;2023-11-19T14:17:25;9.13;;;2.83;;
3601;SDS011;1815;50.950;6.920;2023-11-19T14:19:53;11.60;;;3.73;;
3601;SDS011;1815;50.950;6.920;2023-11-19T14:22:19;10.37;;;3.13;;
3601;SDS011;1815;50.950;6.920;2023-11-19T14:24:45;5.70;;;2.20;;
3601;SDS011;1815;50.950;6.920;2023-11-19T14:27:11;7.77;;;2.33;;
3601;SDS011;1815;50.950;6.920;2023-11-19T14:29:39;6.77;;;1.80;;
3601;SDS011;1815;50.950;6.920;2023-11-19T14:32:05;8.93;;;1.87;;
3601;SDS011;1815;50.950;6.920;2023-11-19T14:34:31;7.40;;;1.97;;
3601;SDS011;1815;50.950;6.920;2023-11-19T14:36:59;9.33;;;1.67;;
3601;SDS011;1815;50.950;6.920;2023-11-19T14:39:26;9.03;;;2.27;;
3601;SDS011;1815;50.950;6.920;2023-11-19T14:41:52;7.70;;;2.37;;
3601;SDS011;1815;50.950;6.920;2023-11-19T14:44:19;9.10;;;2.37;;
3601;SDS011;1815;50.950;6.920;2023-11-19T14:46:46;10.30;;;3.07;;
3601;SDS011;1815;50.950;6.920;2023-11-19T14:49:12;9.37;;;3.40;;
3601;SDS011;1815;50.950;6.920;2023-11-19T14:51:39;9.80;;;2.50;;
3601;SDS011;1815;50.950;6.920;2023-11-19T14:54:05;7.13;;;2.13;;
3601;SDS011;1815;50.950;6.920;2023-11-19T14:56:31;7.40;;;1.40;;
3601;SDS011;1815;50.950;6.920;2023-11-19T14:58:57;7.17;;;3.10;;
3601;SDS011;1815;50.950;6.920;2023-11-19T15:01:23;9.07;;;1.90;;
3601;SDS011;1815;50.950;6.920;2023-11-19T15:03:50;4.40;;;1.50;;
3601;SDS011;1815;50.950;6.920;2023-11-19T15:06:16;12.03;;;2.57;;
3601;SDS011;1815;50.950;6.920;2023-11-19T15:08:41;8.70;;;3.13;;
3601;SDS011;1815;50.950;6.920;2023-11-19T15:11:08;7.97;;;2.70;;
3601;SDS011;1815;50.950;6.920;2023-11-19T15:13:37;16.37;;;3.10;;
3601;SDS011;1815;50.950;6.920;2023-11-19T15:16:06;12.90;;;3.10;;
3601;SDS011;1815;50.950;6.920;2023-11-19T15:18:32;9.17;;;2.50;;
3601;SDS011;1815;50.950;6.920;2023-11-19T15:21:04;11.27;;;3.87;;
3601;SDS011;1815;50.950;6.920;2023-11-19T15:23:33;16.40;;;5.10;;
3601;SDS011;1815;50.950;6.920;2023-11-19T15:25:59;9.27;;;3.70;;
3601;SDS011;1815;50.950;6.920;2023-11-19T15:28:24;12.63;;;3.07;;
3601;SDS011;1815;50.950;6.920;2023-11-19T15:30:50;10.10;;;3.23;;
3601;SDS011;1815;50.950;6.920;2023-11-19T15:33:16;15.27;;;4.63;;
3601;SDS011;1815;50.950;6.920;2023-11-19T15:35:41;13.47;;;5.20;;
3601;SDS011;1815;50.950;6.920;2023-11-19T15:38:07;10.10;;;3.07;;
3601;SDS011;1815;50.950;6.920;2023-11-19T15:40:35;12.77;;;4.80;;
3601;SDS011;1815;50.950;6.920;2023-11-19T15:43:03;11.77;;;5.90;;